Time;durP1;ratioP1;P1;durP2;ratioP2;P2;SDS_P1;SDS_P2;PMS_P1;PMS_P2;Temp;Humidity;BMP_temperature;BMP_pressure;BME280_temperature;BME280_humidity;BME280_pressure;Samples;Min_cycle;Max_cycle;Signal;HPM_P1;HPM_P2
2021/12/28 00:00:34;;;;;;;;;;;;;;;;;;1981821;29;19907;-78
2021/12/28 00:01:32;;;;;;;;;;;;;;;;;;1982545;29;19906;-78
2021/12/28 00:02:31;;;;;;;;;;;;;;;;;;1982411;28;19953;-77
2021/12/28 00:03:30;;;;;;;;;;;;;;;;;;1982461;28;19913;-78
2021/12/28 00:04:29;;;;;;;;;;;;;;;;;;1981821;28;19906;-77
2021/12/28 00:05:28;;;;;;;;;;;;;;;;;;1981797;29;19906;-77
2021/12/28 00:06:27;;;;;;;;;;;;;;;;;;1982307;29;19917;-77
2021/12/28 00:07:26;;;;;;;;;;;;;;;;;;1982471;28;19906;-78
2021/12/28 00:08:24;;;;;;;;;;;;;;;;;;1982416;28;20357;-77
2021/12/28 00:09:23;;;;;;;;;;;;;;;;;;1982482;28;19913;-77
2021/12/28 00:10:22;;;;;;;;;;;;;;;;;;1981730;28;20285;-79
2021/12/28 00:11:21;;;;;;;;;;;;;;;;;;1981694;28;19945;-77
2021/12/28 00:12:20;;;;;;;;;;;;;;;;;;1981656;29;19907;-78
2021/12/28 00:13:19;;;;;;;;;;;;;;;;;;1982384;29;19914;-78
2021/12/28 00:14:22;;;;;;;;;;;;;;;;;;1982431;28;19932;-77
2021/12/28 00:16:33;;;;;;;;;;;;;;;;;;1982470;28;20271;-77
2021/12/28 00:18:50;;;;;;;;;;;;;;;;;;1982317;29;20363;-77
2021/12/28 00:19:49;;;;;;;;;;;;;;;;;;1982377;28;19906;-78
2021/12/28 00:20:48;;;;;;;;;;;;;;;;;;1981720;28;19950;-77
2021/12/28 00:21:46;;;;;;;;;;;;;;;;;;1981704;29;19989;-77
2021/12/28 00:22:45;;;;;;;;;;;;;;;;;;1981625;28;19913;-77
2021/12/28 00:23:44;;;;;;;;;;;;;;;;;;1981516;29;19994;-79
2021/12/28 00:24:43;;;;;;;;;;;;;;;;;;1982110;29;19942;-78
2021/12/28 00:25:42;;;;;;;;;;;;;;;;;;1981546;28;20285;-78
2021/12/28 00:26:41;;;;;;;;;;;;;;;;;;1981532;29;19937;-77
2021/12/28 00:27:40;;;;;;;;;;;;;;;;;;1981300;28;19906;-78
2021/12/28 00:28:39;;;;;;;;;;;;;;;;;;1982304;28;19906;-78
2021/12/28 00:29:37;;;;;;;;;;;;;;;;;;1982330;28;19942;-78
2021/12/28 00:30:36;;;;;;;;;;;;;;;;;;1982371;28;20355;-79
2021/12/28 00:31:35;;;;;;;;;;;;;;;;;;1981538;28;19907;-78
2021/12/28 00:32:34;;;;;;;;;;;;;;;;;;1981485;29;19919;-77
2021/12/28 00:33:33;;;;;;;;;;;;;;;;;;1982110;29;19914;-79
2021/12/28 00:34:33;;;;;;;;;;;;;;;;;;1981531;28;19907;-78
2021/12/28 00:35:32;;;;;;;;;;;;;;;;;;1981476;29;20390;-78
2021/12/28 00:36:31;;;;;;;;;;;;;;;;;;1981920;29;19911;-78
2021/12/28 00:37:29;;;;;;;;;;;;;;;;;;1982324;28;19934;-78
2021/12/28 00:38:28;;;;;;;;;;;;;;;;;;1982130;28;19913;-77
2021/12/28 00:39:27;;;;;;;;;;;;;;;;;;1981544;28;19993;-78
2021/12/28 00:40:26;;;;;;;;;;;;;;;;;;1981644;29;19906;-78
2021/12/28 00:41:25;;;;;;;;;;;;;;;;;;1982148;29;19953;-78
2021/12/28 00:42:24;;;;;;;;;;;;;;;;;;1982274;28;19906;-78
2021/12/28 00:43:22;;;;;;;;;;;;;;;;;;1982142;28;19910;-78
2021/12/28 00:44:21;;;;;;;;;;;;;;;;;;1982159;28;20282;-78
2021/12/28 00:45:20;;;;;;;;;;;;;;;;;;1982134;28;19976;-77
2021/12/28 00:46:19;;;;;;;;;;;;;;;;;;1982035;28;19924;-78
2021/12/28 00:47:18;;;;;;;;;;;;;;;;;;1982207;28;19906;-77
2021/12/28 00:48:17;;;;;;;;;;;;;;;;;;1981597;28;19945;-78
2021/12/28 00:49:16;;;;;;;;;;;;;;;;;;1981192;28;19914;-78
2021/12/28 00:50:15;;;;;;;;;;;;;;;;;;1981471;29;19950;-78
2021/12/28 00:51:14;;;;;;;;;;;;;;;;;;1982041;29;20009;-77
2021/12/28 00:52:12;;;;;;;;;;;;;;;;;;1982165;28;19906;-78
2021/12/28 00:53:11;;;;;;;;;;;;;;;;;;1982213;28;19942;-78
2021/12/28 00:54:10;;;;;;;;;;;;;;;;;;1982125;28;19950;-78
2021/12/28 00:55:09;;;;;;;;;;;;;;;;;;1981448;28;20001;-78
2021/12/28 00:56:08;;;;;;;;;;;;;;;;;;1981438;29;20001;-77
2021/12/28 00:57:07;;;;;;;;;;;;;;;;;;1982024;29;20351;-78
2021/12/28 00:58:06;;;;;;;;;;;;;;;;;;1981434;28;19929;-78
2021/12/28 00:59:04;;;;;;;;;;;;;;;;;;1981425;29;19966;-79
2021/12/28 01:00:03;;;;;;;;;;;;;;;;;;1982105;29;19989;-78
2021/12/28 01:01:02;;;;;;;;;;;;;;;;;;1981952;28;19913;-78
2021/12/28 01:02:01;;;;;;;;;;;;;;;;;;1981395;28;19910;-78
2021/12/28 01:03:00;;;;;;;;;;;;;;;;;;1981380;28;19913;-78
2021/12/28 01:03:59;;;;;;;;;;;;;;;;;;1981373;29;20274;-77
2021/12/28 01:04:57;;;;;;;;;;;;;;;;;;1982081;29;19906;-77
2021/12/28 01:05:56;;;;;;;;;;;;;;;;;;1981818;28;20005;-77
2021/12/28 01:06:55;;;;;;;;;;;;;;;;;;1981205;28;19938;-77
2021/12/28 01:07:55;;;;;;;;;;;;;;;;;;1981280;28;19906;-77
2021/12/28 01:08:54;;;;;;;;;;;;;;;;;;1981365;28;19938;-77
2021/12/28 01:09:53;;;;;;;;;;;;;;;;;;1981770;29;20045;-77
2021/12/28 01:10:52;;;;;;;;;;;;;;;;;;1981887;28;20343;-77
2021/12/28 01:11:51;;;;;;;;;;;;;;;;;;1981934;28;19910;-77
2021/12/28 01:12:52;;;;;;;;;;;;;;;;;;1981907;28;19943;-76
2021/12/28 01:13:51;;;;;;;;;;;;;;;;;;1981323;28;19941;-78
2021/12/28 01:14:49;;;;;;;;;;;;;;;;;;1981429;29;19940;-77
2021/12/28 01:15:48;;;;;;;;;;;;;;;;;;1981822;29;19973;-77
2021/12/28 01:16:47;;;;;;;;;;;;;;;;;;1981894;28;19906;-77
2021/12/28 01:17:46;;;;;;;;;;;;;;;;;;1981901;28;19914;-77
2021/12/28 01:18:45;;;;;;;;;;;;;;;;;;1981928;28;19957;-78
2021/12/28 01:19:44;;;;;;;;;;;;;;;;;;1981203;28;19910;-78
2021/12/28 01:20:43;;;;;;;;;;;;;;;;;;1981214;28;19960;-77
2021/12/28 01:21:41;;;;;;;;;;;;;;;;;;1981052;29;19954;-78
2021/12/28 01:22:40;;;;;;;;;;;;;;;;;;1981765;29;20394;-78
2021/12/28 01:23:39;;;;;;;;;;;;;;;;;;1981167;28;19954;-78
2021/12/28 01:24:38;;;;;;;;;;;;;;;;;;1981234;29;19913;-77
2021/12/28 01:25:37;;;;;;;;;;;;;;;;;;1981777;29;19906;-78
2021/12/28 01:26:36;;;;;;;;;;;;;;;;;;1981809;28;19910;-77
2021/12/28 01:27:35;;;;;;;;;;;;;;;;;;1981187;28;19914;-77
2021/12/28 01:28:33;;;;;;;;;;;;;;;;;;1981296;29;19906;-78
2021/12/28 01:29:33;;;;;;;;;;;;;;;;;;1981822;29;20005;-79
2021/12/28 01:30:31;;;;;;;;;;;;;;;;;;1981179;28;19981;-79
2021/12/28 01:31:30;;;;;;;;;;;;;;;;;;1981236;29;20148;-78
2021/12/28 01:32:29;;;;;;;;;;;;;;;;;;1981090;28;19918;-78
2021/12/28 01:33:28;;;;;;;;;;;;;;;;;;1981118;29;20454;-77
2021/12/28 01:34:27;;;;;;;;;;;;;;;;;;1981725;29;19917;-78
2021/12/28 01:35:26;;;;;;;;;;;;;;;;;;1981096;28;19906;-78
2021/12/28 01:36:25;;;;;;;;;;;;;;;;;;1981108;29;19906;-78
2021/12/28 01:37:23;;;;;;;;;;;;;;;;;;1981732;29;20357;-78
2021/12/28 01:38:22;;;;;;;;;;;;;;;;;;1981757;28;19913;-77
2021/12/28 01:39:21;;;;;;;;;;;;;;;;;;1981557;28;19910;-77
2021/12/28 01:40:20;;;;;;;;;;;;;;;;;;1981754;28;19958;-77
2021/12/28 01:41:19;;;;;;;;;;;;;;;;;;1981863;28;20352;-77
2021/12/28 01:42:18;;;;;;;;;;;;;;;;;;1981059;28;19906;-77
2021/12/28 01:43:17;;;;;;;;;;;;;;;;;;1981057;28;19906;-77
2021/12/28 01:44:16;;;;;;;;;;;;;;;;;;1981189;29;19914;-77
2021/12/28 01:45:15;;;;;;;;;;;;;;;;;;1981604;29;20248;-77
2021/12/28 01:46:14;;;;;;;;;;;;;;;;;;1981540;28;19910;-78
2021/12/28 01:47:15;;;;;;;;;;;;;;;;;;1981714;28;20310;-78
2021/12/28 01:48:14;;;;;;;;;;;;;;;;;;1981771;28;19938;-78
2021/12/28 01:49:13;;;;;;;;;;;;;;;;;;1981672;28;20285;-78
2021/12/28 01:50:12;;;;;;;;;;;;;;;;;;1981631;28;19903;-77
2021/12/28 01:51:11;;;;;;;;;;;;;;;;;;1981730;28;19965;-77
2021/12/28 01:52:10;;;;;;;;;;;;;;;;;;1981772;28;19993;-78
2021/12/28 01:53:09;;;;;;;;;;;;;;;;;;1980915;28;20001;-78
2021/12/28 01:54:07;;;;;;;;;;;;;;;;;;1981113;29;19902;-78
2021/12/28 01:55:06;;;;;;;;;;;;;;;;;;1981671;29;19914;-78
2021/12/28 01:56:05;;;;;;;;;;;;;;;;;;1980813;28;19910;-78
2021/12/28 01:57:04;;;;;;;;;;;;;;;;;;1981085;29;19906;-78
2021/12/28 01:58:03;;;;;;;;;;;;;;;;;;1981733;29;19949;-77
2021/12/28 01:59:02;;;;;;;;;;;;;;;;;;1980891;28;20290;-78
2021/12/28 02:00:01;;;;;;;;;;;;;;;;;;1980970;28;19918;-78
2021/12/28 02:00:59;;;;;;;;;;;;;;;;;;1981111;29;19906;-78
2021/12/28 02:01:59;;;;;;;;;;;;;;;;;;1981610;29;20339;-77
2021/12/28 02:02:59;;;;;;;;;;;;;;;;;;1981043;28;19913;-77
2021/12/28 02:03:58;;;;;;;;;;;;;;;;;;1981049;29;19902;-77
2021/12/28 02:04:56;;;;;;;;;;;;;;;;;;1981735;29;20270;-78
2021/12/28 02:05:55;;;;;;;;;;;;;;;;;;1981611;28;20022;-78
2021/12/28 02:06:58;;;;;;;;;;;;;;;;;;1981603;28;19918;-77
2021/12/28 02:07:56;;;;;;;;;;;;;;;;;;1980850;28;19906;-77
2021/12/28 02:08:55;;;;;;;;;;;;;;;;;;1981029;29;19906;-77
2021/12/28 02:09:54;;;;;;;;;;;;;;;;;;1980958;28;20306;-79
2021/12/28 02:10:53;;;;;;;;;;;;;;;;;;1980994;28;19906;-79
2021/12/28 02:11:52;;;;;;;;;;;;;;;;;;1981007;29;19910;-80
2021/12/28 02:12:51;;;;;;;;;;;;;;;;;;1981535;29;19941;-77
2021/12/28 02:13:50;;;;;;;;;;;;;;;;;;1980966;28;19907;-77
2021/12/28 02:14:49;;;;;;;;;;;;;;;;;;1981216;29;20021;-78
2021/12/28 02:15:48;;;;;;;;;;;;;;;;;;1981690;29;20004;-78
2021/12/28 02:16:46;;;;;;;;;;;;;;;;;;1981633;28;19906;-77
2021/12/28 02:17:47;;;;;;;;;;;;;;;;;;1980950;28;20077;-77
2021/12/28 02:18:45;;;;;;;;;;;;;;;;;;1981074;29;19910;-78
2021/12/28 02:19:45;;;;;;;;;;;;;;;;;;1981626;29;19907;-79
2021/12/28 02:20:43;;;;;;;;;;;;;;;;;;1981458;28;19906;-78
2021/12/28 02:21:42;;;;;;;;;;;;;;;;;;1980892;28;20005;-77
2021/12/28 02:22:41;;;;;;;;;;;;;;;;;;1980975;29;20406;-77
2021/12/28 02:23:40;;;;;;;;;;;;;;;;;;1981552;29;19906;-77
2021/12/28 02:24:39;;;;;;;;;;;;;;;;;;1981725;28;19910;-78
2021/12/28 02:25:38;;;;;;;;;;;;;;;;;;1981531;28;19913;-78
2021/12/28 02:26:37;;;;;;;;;;;;;;;;;;1981418;28;19910;-77
2021/12/28 02:27:36;;;;;;;;;;;;;;;;;;1981593;28;19969;-78
2021/12/28 02:28:34;;;;;;;;;;;;;;;;;;1981621;28;20026;-78
2021/12/28 02:29:33;;;;;;;;;;;;;;;;;;1981553;28;19906;-78
2021/12/28 02:30:32;;;;;;;;;;;;;;;;;;1981519;28;19965;-78
2021/12/28 02:31:31;;;;;;;;;;;;;;;;;;1981580;28;19910;-77
2021/12/28 02:32:30;;;;;;;;;;;;;;;;;;1981350;28;19924;-79
2021/12/28 02:33:29;;;;;;;;;;;;;;;;;;1981462;28;19907;-78
2021/12/28 02:34:27;;;;;;;;;;;;;;;;;;1981546;28;19946;-78
2021/12/28 02:35:26;;;;;;;;;;;;;;;;;;1981627;28;20053;-78
2021/12/28 02:36:26;;;;;;;;;;;;;;;;;;1981519;28;19953;-77
2021/12/28 02:37:25;;;;;;;;;;;;;;;;;;1981642;28;19913;-77
2021/12/28 02:38:24;;;;;;;;;;;;;;;;;;1981585;28;20365;-77
2021/12/28 02:39:22;;;;;;;;;;;;;;;;;;1981560;28;19907;-78
2021/12/28 02:40:21;;;;;;;;;;;;;;;;;;1981593;28;20274;-78
2021/12/28 02:41:20;;;;;;;;;;;;;;;;;;1981610;28;19907;-77
2021/12/28 02:42:19;;;;;;;;;;;;;;;;;;1981534;28;19912;-77
2021/12/28 02:43:18;;;;;;;;;;;;;;;;;;1981568;28;19906;-78
2021/12/28 02:44:17;;;;;;;;;;;;;;;;;;1980724;28;19907;-77
2021/12/28 02:45:15;;;;;;;;;;;;;;;;;;1980857;29;20005;-78
2021/12/28 02:46:16;;;;;;;;;;;;;;;;;;1980779;28;20388;-79
2021/12/28 02:47:14;;;;;;;;;;;;;;;;;;1980854;28;19949;-79
2021/12/28 02:48:13;;;;;;;;;;;;;;;;;;1973487;28;20022;-78
2021/12/28 02:49:12;;;;;;;;;;;;;;;;;;1980446;29;19907;-78
2021/12/28 02:50:11;;;;;;;;;;;;;;;;;;1981464;28;20372;-79
2021/12/28 02:51:10;;;;;;;;;;;;;;;;;;1982301;28;19907;-78
2021/12/28 02:52:09;;;;;;;;;;;;;;;;;;1982368;28;20277;-77
2021/12/28 02:53:08;;;;;;;;;;;;;;;;;;1982531;28;19913;-77
2021/12/28 02:54:07;;;;;;;;;;;;;;;;;;1982902;29;19944;-77
2021/12/28 02:55:06;;;;;;;;;;;;;;;;;;1982951;28;19976;-77
2021/12/28 02:56:05;;;;;;;;;;;;;;;;;;1982772;28;20022;-77
2021/12/28 02:57:04;;;;;;;;;;;;;;;;;;1982888;28;19910;-77
2021/12/28 02:58:02;;;;;;;;;;;;;;;;;;1983073;28;19925;-77
2021/12/28 02:59:02;;;;;;;;;;;;;;;;;;1982863;28;19911;-77
2021/12/28 03:00:01;;;;;;;;;;;;;;;;;;1982898;28;19906;-78
2021/12/28 03:00:59;;;;;;;;;;;;;;;;;;1982848;28;19948;-78
2021/12/28 03:01:58;;;;;;;;;;;;;;;;;;1982902;28;20014;-78
2021/12/28 03:02:57;;;;;;;;;;;;;;;;;;1982913;28;19957;-77
2021/12/28 03:03:58;;;;;;;;;;;;;;;;;;1983011;28;19993;-77
2021/12/28 03:04:57;;;;;;;;;;;;;;;;;;1982853;28;19907;-77
2021/12/28 03:05:56;;;;;;;;;;;;;;;;;;1982792;28;19944;-78
2021/12/28 03:06:54;;;;;;;;;;;;;;;;;;1982870;28;20374;-77
2021/12/28 03:07:53;;;;;;;;;;;;;;;;;;1982677;28;20254;-77
2021/12/28 03:08:53;;;;;;;;;;;;;;;;;;1982748;28;19907;-78
2021/12/28 03:09:52;;;;;;;;;;;;;;;;;;1982817;28;19913;-78
2021/12/28 03:10:51;;;;;;;;;;;;;;;;;;1982852;28;19910;-78
2021/12/28 03:11:50;;;;;;;;;;;;;;;;;;1982242;28;19913;-78
2021/12/28 03:12:48;;;;;;;;;;;;;;;;;;1982175;29;19906;-78
2021/12/28 03:13:47;;;;;;;;;;;;;;;;;;1982871;29;19907;-77
2021/12/28 03:14:46;;;;;;;;;;;;;;;;;;1982817;28;20289;-78
2021/12/28 03:15:45;;;;;;;;;;;;;;;;;;1982811;28;19913;-78
2021/12/28 03:16:44;;;;;;;;;;;;;;;;;;1982819;28;19906;-78
2021/12/28 03:17:43;;;;;;;;;;;;;;;;;;1982897;28;19914;-78
2021/12/28 03:18:42;;;;;;;;;;;;;;;;;;1983144;28;19985;-79
2021/12/28 03:19:40;;;;;;;;;;;;;;;;;;1985054;28;20012;-78
2021/12/28 03:20:39;;;;;;;;;;;;;;;;;;1985732;28;19945;-78
2021/12/28 03:21:40;;;;;;;;;;;;;;;;;;1985826;28;19934;-78
2021/12/28 03:22:39;;;;;;;;;;;;;;;;;;1984696;28;19913;-77
2021/12/28 03:23:38;;;;;;;;;;;;;;;;;;1985977;29;19978;-78
2021/12/28 03:24:37;;;;;;;;;;;;;;;;;;1985452;28;19907;-78
2021/12/28 03:25:36;;;;;;;;;;;;;;;;;;1985052;29;19913;-77
2021/12/28 03:26:34;;;;;;;;;;;;;;;;;;1983640;29;19976;-77
2021/12/28 03:27:33;;;;;;;;;;;;;;;;;;1982668;28;19907;-78
2021/12/28 03:28:32;;;;;;;;;;;;;;;;;;1982699;28;20062;-78
2021/12/28 03:29:31;;;;;;;;;;;;;;;;;;1981998;28;19997;-78
2021/12/28 03:30:30;;;;;;;;;;;;;;;;;;1982086;29;19913;-78
2021/12/28 03:31:29;;;;;;;;;;;;;;;;;;1982584;29;20358;-78
2021/12/28 03:32:28;;;;;;;;;;;;;;;;;;1982479;28;19919;-78
2021/12/28 03:33:26;;;;;;;;;;;;;;;;;;1982655;28;19996;-78
2021/12/28 03:34:25;;;;;;;;;;;;;;;;;;1982789;28;19910;-78
2021/12/28 03:35:24;;;;;;;;;;;;;;;;;;1982024;28;19912;-78
2021/12/28 03:36:23;;;;;;;;;;;;;;;;;;1981980;29;19918;-78
2021/12/28 03:37:22;;;;;;;;;;;;;;;;;;1982647;29;20005;-78
2021/12/28 03:38:21;;;;;;;;;;;;;;;;;;1981936;28;19918;-78
2021/12/28 03:39:20;;;;;;;;;;;;;;;;;;1982011;29;19930;-78
2021/12/28 03:40:18;;;;;;;;;;;;;;;;;;1982698;29;19910;-78
2021/12/28 03:41:17;;;;;;;;;;;;;;;;;;1982605;28;19913;-78
2021/12/28 03:42:16;;;;;;;;;;;;;;;;;;1981991;28;19907;-77
2021/12/28 03:43:15;;;;;;;;;;;;;;;;;;1982063;29;19992;-78
2021/12/28 03:44:14;;;;;;;;;;;;;;;;;;1982429;29;19914;-78
2021/12/28 03:45:13;;;;;;;;;;;;;;;;;;1982506;28;19914;-77
2021/12/28 03:46:12;;;;;;;;;;;;;;;;;;1982598;28;20375;-77
2021/12/28 03:47:11;;;;;;;;;;;;;;;;;;1982653;28;20243;-79
2021/12/28 03:48:10;;;;;;;;;;;;;;;;;;1982563;28;19906;-78
2021/12/28 03:49:10;;;;;;;;;;;;;;;;;;1982515;28;19906;-77
2021/12/28 03:50:08;;;;;;;;;;;;;;;;;;1982670;28;19953;-77
2021/12/28 03:51:08;;;;;;;;;;;;;;;;;;1982501;28;19936;-77
2021/12/28 03:52:07;;;;;;;;;;;;;;;;;;1981880;28;19941;-79
2021/12/28 03:53:05;;;;;;;;;;;;;;;;;;1982043;28;20418;-77
2021/12/28 03:54:04;;;;;;;;;;;;;;;;;;1982507;29;19906;-77
2021/12/28 03:55:03;;;;;;;;;;;;;;;;;;1981952;28;20400;-77
2021/12/28 03:56:02;;;;;;;;;;;;;;;;;;1981722;29;19907;-76
2021/12/28 03:57:01;;;;;;;;;;;;;;;;;;1981755;28;19919;-77
2021/12/28 03:58:00;;;;;;;;;;;;;;;;;;1981892;29;19906;-78
2021/12/28 03:58:59;;;;;;;;;;;;;;;;;;1982448;29;20037;-78
2021/12/28 03:59:58;;;;;;;;;;;;;;;;;;1981805;28;19907;-78
2021/12/28 04:00:56;;;;;;;;;;;;;;;;;;1981835;29;20421;-77
2021/12/28 04:01:55;;;;;;;;;;;;;;;;;;1981742;28;19907;-77
2021/12/28 04:02:55;;;;;;;;;;;;;;;;;;1981975;28;19906;-77
2021/12/28 04:03:54;;;;;;;;;;;;;;;;;;1981872;29;20382;-78
2021/12/28 04:04:53;;;;;;;;;;;;;;;;;;1981711;28;19917;-78
2021/12/28 04:05:52;;;;;;;;;;;;;;;;;;1981926;29;20398;-78
2021/12/28 04:06:51;;;;;;;;;;;;;;;;;;1981625;28;19914;-78
2021/12/28 04:07:50;;;;;;;;;;;;;;;;;;1981830;29;20028;-78
2021/12/28 04:08:49;;;;;;;;;;;;;;;;;;1982398;29;19918;-78
2021/12/28 04:10:53;;;;;;;;;;;;;;;;;;1982633;28;19907;-78
2021/12/28 04:11:51;;;;;;;;;;;;;;;;;;1981690;28;19973;-78
2021/12/28 04:12:50;;;;;;;;;;;;;;;;;;1981790;29;19906;-78
2021/12/28 04:13:49;;;;;;;;;;;;;;;;;;1982298;29;19914;-78
2021/12/28 04:14:48;;;;;;;;;;;;;;;;;;1981669;28;19907;-78
2021/12/28 04:15:47;;;;;;;;;;;;;;;;;;1981721;28;19913;-78
2021/12/28 04:16:46;;;;;;;;;;;;;;;;;;1981740;29;19906;-79
2021/12/28 04:17:45;;;;;;;;;;;;;;;;;;1982287;29;19945;-78
2021/12/28 04:18:43;;;;;;;;;;;;;;;;;;1982420;28;19964;-78
2021/12/28 04:19:42;;;;;;;;;;;;;;;;;;1981757;28;19907;-78
2021/12/28 04:20:41;;;;;;;;;;;;;;;;;;1981605;29;20004;-79
2021/12/28 04:21:40;;;;;;;;;;;;;;;;;;1982218;29;19996;-78
2021/12/28 04:22:39;;;;;;;;;;;;;;;;;;1981634;28;19907;-78
2021/12/28 04:23:37;;;;;;;;;;;;;;;;;;1981728;29;19913;-78
2021/12/28 04:24:36;;;;;;;;;;;;;;;;;;1982199;29;19907;-78
2021/12/28 04:25:35;;;;;;;;;;;;;;;;;;1982305;28;19913;-78
2021/12/28 04:26:34;;;;;;;;;;;;;;;;;;1982137;28;20278;-78
2021/12/28 04:27:33;;;;;;;;;;;;;;;;;;1982359;28;19906;-77
2021/12/28 04:28:32;;;;;;;;;;;;;;;;;;1982345;28;19906;-78
2021/12/28 04:29:31;;;;;;;;;;;;;;;;;;1982360;28;20334;-78
2021/12/28 04:30:30;;;;;;;;;;;;;;;;;;1982260;28;20004;-78
2021/12/28 04:31:28;;;;;;;;;;;;;;;;;;1981549;28;19912;-77
2021/12/28 04:32:27;;;;;;;;;;;;;;;;;;1981353;29;19919;-78
2021/12/28 04:33:26;;;;;;;;;;;;;;;;;;1982076;29;19907;-77
2021/12/28 04:34:25;;;;;;;;;;;;;;;;;;1982324;28;19914;-77
2021/12/28 04:35:24;;;;;;;;;;;;;;;;;;1982186;28;19949;-79
2021/12/28 04:36:23;;;;;;;;;;;;;;;;;;1982068;28;20009;-77
2021/12/28 04:37:21;;;;;;;;;;;;;;;;;;1982179;28;19916;-77
2021/12/28 04:38:20;;;;;;;;;;;;;;;;;;1982252;28;19907;-77
2021/12/28 04:39:19;;;;;;;;;;;;;;;;;;1982314;28;20346;-77
2021/12/28 04:40:18;;;;;;;;;;;;;;;;;;1982376;28;19912;-77
2021/12/28 04:41:17;;;;;;;;;;;;;;;;;;1982166;28;19979;-77
2021/12/28 04:42:16;;;;;;;;;;;;;;;;;;1981514;28;19913;-77
2021/12/28 04:43:16;;;;;;;;;;;;;;;;;;1981556;29;20322;-78
2021/12/28 04:44:22;;;;;;;;;;;;;;;;;;1982028;29;19907;-78
2021/12/28 04:45:20;;;;;;;;;;;;;;;;;;1981487;28;19960;-77
2021/12/28 04:46:19;;;;;;;;;;;;;;;;;;1981397;29;20306;-78
2021/12/28 04:47:18;;;;;;;;;;;;;;;;;;1982225;29;19913;-78
2021/12/28 04:48:17;;;;;;;;;;;;;;;;;;1982128;28;20310;-78
2021/12/28 04:49:17;;;;;;;;;;;;;;;;;;1982171;28;20327;-78
2021/12/28 04:50:15;;;;;;;;;;;;;;;;;;1982178;28;20385;-77
2021/12/28 04:51:14;;;;;;;;;;;;;;;;;;1981432;28;20004;-77
2021/12/28 04:52:13;;;;;;;;;;;;;;;;;;1981520;29;19947;-78
2021/12/28 04:53:12;;;;;;;;;;;;;;;;;;1982088;29;19918;-77
2021/12/28 04:54:12;;;;;;;;;;;;;;;;;;1982025;28;19910;-78
2021/12/28 04:55:12;;;;;;;;;;;;;;;;;;1982106;28;19917;-77
2021/12/28 04:56:11;;;;;;;;;;;;;;;;;;1982046;28;19907;-78
2021/12/28 04:57:09;;;;;;;;;;;;;;;;;;1981883;28;20259;-78
2021/12/28 04:58:08;;;;;;;;;;;;;;;;;;1982081;28;19906;-78
2021/12/28 04:59:07;;;;;;;;;;;;;;;;;;1982025;28;19912;-78
2021/12/28 05:00:06;;;;;;;;;;;;;;;;;;1981353;28;19914;-78
2021/12/28 05:01:05;;;;;;;;;;;;;;;;;;1981381;29;19914;-77
2021/12/28 05:02:04;;;;;;;;;;;;;;;;;;1981346;28;19907;-78
2021/12/28 05:03:03;;;;;;;;;;;;;;;;;;1981447;29;19963;-77
2021/12/28 05:04:01;;;;;;;;;;;;;;;;;;1981953;29;19910;-78
2021/12/28 05:05:00;;;;;;;;;;;;;;;;;;1982074;28;19914;-78
2021/12/28 05:05:59;;;;;;;;;;;;;;;;;;1981846;28;20278;-78
2021/12/28 05:06:58;;;;;;;;;;;;;;;;;;1981332;28;19906;-78
2021/12/28 05:07:57;;;;;;;;;;;;;;;;;;1981382;28;19913;-78
2021/12/28 05:08:56;;;;;;;;;;;;;;;;;;1981313;29;19941;-79
2021/12/28 05:09:57;;;;;;;;;;;;;;;;;;1981833;29;19993;-79
2021/12/28 05:10:56;;;;;;;;;;;;;;;;;;1981976;28;19907;-79
2021/12/28 05:11:55;;;;;;;;;;;;;;;;;;1982047;28;19957;-78
2021/12/28 05:12:54;;;;;;;;;;;;;;;;;;1982031;28;19906;-78
2021/12/28 05:13:53;;;;;;;;;;;;;;;;;;1981505;28;20338;-78
2021/12/28 05:14:52;;;;;;;;;;;;;;;;;;1981916;28;19906;-78
2021/12/28 05:15:52;;;;;;;;;;;;;;;;;;1981876;28;19917;-78
2021/12/28 05:16:51;;;;;;;;;;;;;;;;;;1981801;28;19973;-79
2021/12/28 05:17:50;;;;;;;;;;;;;;;;;;1981925;28;19956;-77
2021/12/28 05:18:49;;;;;;;;;;;;;;;;;;1981251;28;20263;-78
2021/12/28 05:19:48;;;;;;;;;;;;;;;;;;1981394;29;20068;-78
2021/12/28 05:20:46;;;;;;;;;;;;;;;;;;1981813;29;20266;-78
2021/12/28 05:21:45;;;;;;;;;;;;;;;;;;1981874;28;19910;-78
2021/12/28 05:22:44;;;;;;;;;;;;;;;;;;1981926;28;19907;-78
2021/12/28 05:23:43;;;;;;;;;;;;;;;;;;1981809;28;20426;-79
2021/12/28 05:24:42;;;;;;;;;;;;;;;;;;1981868;28;19913;-77
2021/12/28 05:25:41;;;;;;;;;;;;;;;;;;1981901;28;20496;-78
2021/12/28 05:26:39;;;;;;;;;;;;;;;;;;1981063;28;19957;-78
2021/12/28 05:27:39;;;;;;;;;;;;;;;;;;1981270;29;20378;-78
2021/12/28 05:28:38;;;;;;;;;;;;;;;;;;1981904;29;19914;-78
2021/12/28 05:29:37;;;;;;;;;;;;;;;;;;1981227;28;19913;-78
2021/12/28 05:30:36;;;;;;;;;;;;;;;;;;1981245;29;19907;-78
2021/12/28 05:31:35;;;;;;;;;;;;;;;;;;1981174;28;19911;-77
2021/12/28 05:32:34;;;;;;;;;;;;;;;;;;1981130;29;19961;-78
2021/12/28 05:33:33;;;;;;;;;;;;;;;;;;1981726;29;19914;-78
2021/12/28 05:34:32;;;;;;;;;;;;;;;;;;1981800;28;19907;-78
2021/12/28 05:35:31;;;;;;;;;;;;;;;;;;1981741;28;20420;-78
2021/12/28 05:36:30;;;;;;;;;;;;;;;;;;1981166;28;19954;-78
2021/12/28 05:37:28;;;;;;;;;;;;;;;;;;1981269;29;20011;-78
2021/12/28 05:38:27;;;;;;;;;;;;;;;;;;1981741;29;20274;-79
2021/12/28 05:39:26;;;;;;;;;;;;;;;;;;1981148;28;20062;-79
2021/12/28 05:40:25;;;;;;;;;;;;;;;;;;1981290;29;19906;-78
2021/12/28 05:41:24;;;;;;;;;;;;;;;;;;1981768;29;20291;-78
2021/12/28 05:42:23;;;;;;;;;;;;;;;;;;1981091;28;19914;-79
2021/12/28 05:43:21;;;;;;;;;;;;;;;;;;1981198;28;19960;-79
2021/12/28 05:44:20;;;;;;;;;;;;;;;;;;1981127;29;19913;-78
2021/12/28 05:45:19;;;;;;;;;;;;;;;;;;1981794;29;19914;-79
2021/12/28 05:46:18;;;;;;;;;;;;;;;;;;1981578;28;20425;-78
2021/12/28 05:47:19;;;;;;;;;;;;;;;;;;1981891;28;19950;-78
2021/12/28 05:48:18;;;;;;;;;;;;;;;;;;1981925;28;19914;-78
2021/12/28 05:49:17;;;;;;;;;;;;;;;;;;1981845;28;19942;-79
2021/12/28 05:50:16;;;;;;;;;;;;;;;;;;1981684;28;19907;-77
2021/12/28 05:51:15;;;;;;;;;;;;;;;;;;1981069;28;20010;-78
2021/12/28 05:52:13;;;;;;;;;;;;;;;;;;1981041;28;19993;-78
2021/12/28 05:53:12;;;;;;;;;;;;;;;;;;1981275;29;19906;-77
2021/12/28 05:54:12;;;;;;;;;;;;;;;;;;1981945;29;19910;-78
2021/12/28 05:55:11;;;;;;;;;;;;;;;;;;1981078;28;19914;-78
2021/12/28 05:56:09;;;;;;;;;;;;;;;;;;1981039;29;19907;-77
2021/12/28 05:57:09;;;;;;;;;;;;;;;;;;1980960;28;20271;-77
2021/12/28 05:58:07;;;;;;;;;;;;;;;;;;1981013;28;20374;-78
2021/12/28 05:59:06;;;;;;;;;;;;;;;;;;1981105;29;19928;-78
2021/12/28 06:00:05;;;;;;;;;;;;;;;;;;1981637;29;19910;-77
2021/12/28 06:01:04;;;;;;;;;;;;;;;;;;1981773;28;19913;-77
2021/12/28 06:02:03;;;;;;;;;;;;;;;;;;1981793;28;19906;-77
2021/12/28 06:03:02;;;;;;;;;;;;;;;;;;1981843;28;19989;-77
2021/12/28 06:04:01;;;;;;;;;;;;;;;;;;1981083;28;19907;-77
2021/12/28 06:04:59;;;;;;;;;;;;;;;;;;1980999;29;20302;-79
2021/12/28 06:05:58;;;;;;;;;;;;;;;;;;1981572;29;19907;-78
2021/12/28 06:06:57;;;;;;;;;;;;;;;;;;1981691;28;19918;-77
2021/12/28 06:07:56;;;;;;;;;;;;;;;;;;1981827;28;19910;-78
2021/12/28 06:08:55;;;;;;;;;;;;;;;;;;1981087;28;19914;-78
2021/12/28 06:09:54;;;;;;;;;;;;;;;;;;1981120;29;20054;-78
2021/12/28 06:10:54;;;;;;;;;;;;;;;;;;1981699;28;20322;-78
2021/12/28 06:11:53;;;;;;;;;;;;;;;;;;1981713;28;20063;-78
2021/12/28 06:12:52;;;;;;;;;;;;;;;;;;1981647;28;20393;-78
2021/12/28 06:13:51;;;;;;;;;;;;;;;;;;1981815;28;19913;-77
2021/12/28 06:14:49;;;;;;;;;;;;;;;;;;1981608;28;19977;-77
2021/12/28 06:15:48;;;;;;;;;;;;;;;;;;1981651;28;19906;-78
2021/12/28 06:16:47;;;;;;;;;;;;;;;;;;1981479;28;19907;-77
2021/12/28 06:17:46;;;;;;;;;;;;;;;;;;1981619;28;19910;-79
2021/12/28 06:18:45;;;;;;;;;;;;;;;;;;1981539;28;19906;-76
2021/12/28 06:19:44;;;;;;;;;;;;;;;;;;1981676;28;19928;-80
2021/12/28 06:20:42;;;;;;;;;;;;;;;;;;1981615;28;19914;-78
2021/12/28 06:21:41;;;;;;;;;;;;;;;;;;1981586;28;19918;-78
2021/12/28 06:22:40;;;;;;;;;;;;;;;;;;1981643;28;19966;-78
2021/12/28 06:23:39;;;;;;;;;;;;;;;;;;1981657;28;19956;-78
2021/12/28 06:24:38;;;;;;;;;;;;;;;;;;1981524;28;19992;-77
2021/12/28 06:25:37;;;;;;;;;;;;;;;;;;1980873;28;20342;-79
2021/12/28 06:26:36;;;;;;;;;;;;;;;;;;1982329;29;20016;-77
2021/12/28 06:27:34;;;;;;;;;;;;;;;;;;1983096;29;19982;-77
2021/12/28 06:28:33;;;;;;;;;;;;;;;;;;1982366;28;19906;-77
2021/12/28 06:29:32;;;;;;;;;;;;;;;;;;1982659;29;19929;-77
2021/12/28 06:30:31;;;;;;;;;;;;;;;;;;1983071;29;19911;-78
2021/12/28 06:31:30;;;;;;;;;;;;;;;;;;1982382;28;19913;-79
2021/12/28 06:32:29;;;;;;;;;;;;;;;;;;1982444;29;19925;-79
2021/12/28 06:33:27;;;;;;;;;;;;;;;;;;1982467;28;19907;-78
2021/12/28 06:34:26;;;;;;;;;;;;;;;;;;1982406;28;19906;-77
2021/12/28 06:35:25;;;;;;;;;;;;;;;;;;1982454;29;19997;-78
2021/12/28 06:36:24;;;;;;;;;;;;;;;;;;1982427;28;20282;-78
2021/12/28 06:37:23;;;;;;;;;;;;;;;;;;1982349;28;19907;-78
2021/12/28 06:38:22;;;;;;;;;;;;;;;;;;1982414;29;19910;-78
2021/12/28 06:39:21;;;;;;;;;;;;;;;;;;1983008;29;19906;-78
2021/12/28 06:40:19;;;;;;;;;;;;;;;;;;1982982;28;19996;-78
2021/12/28 06:41:18;;;;;;;;;;;;;;;;;;1983075;28;19906;-78
2021/12/28 06:42:17;;;;;;;;;;;;;;;;;;1983060;28;19906;-78
2021/12/28 06:43:16;;;;;;;;;;;;;;;;;;1983146;28;20278;-79
2021/12/28 06:44:15;;;;;;;;;;;;;;;;;;1982994;28;19953;-78
2021/12/28 06:45:14;;;;;;;;;;;;;;;;;;1983125;28;19907;-78
2021/12/28 06:46:13;;;;;;;;;;;;;;;;;;1982220;28;19941;-80